createdAt,value
2022-09-18T00:07:00.231Z,0
2022-09-18T00:17:00.309Z,1
2022-09-18T00:27:00.544Z,4
2022-09-18T00:37:00.458Z,10
2022-09-18T00:47:00.217Z,3
2022-09-18T00:57:00.452Z,4
2022-09-18T01:07:00.224Z,3
2022-09-18T01:17:00.423Z,3
2022-09-18T01:27:00.195Z,6
2022-09-18T01:37:00.416Z,3
2022-09-18T01:47:00.466Z,0
2022-09-18T01:57:00.436Z,6
2022-09-18T02:07:00.406Z,8
2022-09-18T02:17:00.428Z,1
2022-09-18T02:27:00.398Z,2
2022-09-18T02:37:00.416Z,0
2022-09-18T02:47:00.396Z,2
2022-09-18T02:57:00.423Z,0
2022-09-18T03:07:00.396Z,0
2022-09-18T03:17:00.599Z,2
2022-09-18T03:27:00.390Z,1
2022-09-18T03:37:00.641Z,4
2022-09-18T03:47:00.464Z,1
2022-09-18T03:57:00.471Z,0
2022-09-18T04:07:00.448Z,3
2022-09-18T04:17:00.679Z,4
2022-09-18T04:27:00.453Z,0
2022-09-18T04:37:00.667Z,5
2022-09-18T04:47:00.511Z,4
2022-09-18T04:57:00.672Z,6
2022-09-18T05:07:00.449Z,4
2022-09-18T05:17:00.666Z,3
2022-09-18T05:27:00.636Z,4
2022-09-18T05:37:00.545Z,4
2022-09-18T05:47:00.540Z,6
2022-09-18T05:57:00.714Z,3
2022-09-18T06:07:00.462Z,3
2022-09-18T06:17:00.686Z,11
2022-09-18T06:27:00.678Z,11
2022-09-18T06:37:00.706Z,3
2022-09-18T06:47:00.720Z,2
2022-09-18T06:57:00.707Z,3
2022-09-18T07:07:00.691Z,9
2022-09-18T07:17:00.721Z,8
2022-09-18T07:27:00.692Z,5
2022-09-18T07:37:00.696Z,7
2022-09-18T07:47:00.723Z,4
2022-09-18T07:57:00.899Z,5
2022-09-18T08:07:00.700Z,11
2022-09-18T08:17:00.920Z,6
2022-09-18T08:27:00.687Z,8
2022-09-18T08:37:00.902Z,6
2022-09-18T08:47:00.761Z,5
2022-09-18T08:57:00.948Z,8
2022-09-18T09:07:00.708Z,14
2022-09-18T09:17:00.949Z,9
2022-09-18T09:27:00.847Z,8
2022-09-18T09:37:01.125Z,13
2022-09-18T09:47:01.067Z,14
2022-09-18T09:57:00.986Z,14
2022-09-18T10:07:00.752Z,14
2022-09-18T10:17:01.018Z,6
2022-09-18T10:27:00.802Z,16
2022-09-18T10:37:01.007Z,4
2022-09-18T10:47:00.987Z,16
2022-09-18T10:57:00.974Z,22
2022-09-18T11:07:00.989Z,15
2022-09-18T11:17:01.013Z,17
2022-09-18T11:27:01.076Z,11
2022-09-18T11:37:00.993Z,12
2022-09-18T11:47:01.039Z,12
2022-09-18T11:57:01.000Z,2
2022-09-18T12:07:01.115Z,12
2022-09-18T12:17:01.011Z,7
2022-09-18T12:26:59.579Z,10
2022-09-18T12:36:59.797Z,6
2022-09-18T12:47:00.740Z,0
2022-09-18T12:57:00.492Z,0
2022-09-18T13:07:00.225Z,10
2022-09-18T13:17:01.175Z,18
2022-09-18T13:27:00.948Z,9
2022-09-18T13:37:01.156Z,8
2022-09-18T13:47:01.031Z,6
2022-09-18T13:57:01.139Z,7
2022-09-18T14:07:01.102Z,6
2022-09-18T14:17:01.159Z,3
2022-09-18T14:27:01.129Z,16
2022-09-18T14:37:01.141Z,10
2022-09-18T14:47:01.130Z,7
2022-09-18T14:57:01.126Z,6
2022-09-18T15:07:01.119Z,7
2022-09-18T15:17:01.166Z,18
2022-09-18T15:27:01.146Z,3
2022-09-18T15:37:01.159Z,3
2022-09-18T15:47:01.193Z,7
2022-09-18T15:57:01.392Z,5
2022-09-18T16:07:01.318Z,9
2022-09-18T16:17:01.367Z,8
2022-09-18T16:27:01.152Z,6
2022-09-18T16:37:01.357Z,3
2022-09-18T16:47:01.233Z,4
2022-09-18T16:57:01.377Z,12
2022-09-18T17:07:01.121Z,4
2022-09-18T17:17:01.529Z,1
2022-09-18T17:27:01.332Z,1
2022-09-18T17:37:02.384Z,0
2022-09-18T17:47:01.416Z,1
2022-09-18T17:57:01.352Z,2
2022-09-18T18:07:01.332Z,0
2022-09-18T18:17:01.398Z,0
2022-09-18T18:27:01.364Z,0
2022-09-18T18:37:01.385Z,1
2022-09-18T18:47:01.551Z,0
2022-09-18T18:57:01.649Z,0
2022-09-18T19:07:01.318Z,4
2022-09-18T19:17:01.559Z,1
2022-09-18T19:27:01.330Z,2
2022-09-18T19:37:01.548Z,0
2022-09-18T19:47:01.307Z,3
2022-09-18T19:57:01.534Z,1
2022-09-18T20:07:01.329Z,2
2022-09-18T20:17:01.551Z,4
2022-09-18T20:27:01.551Z,0
2022-09-18T20:37:01.475Z,2
2022-09-18T20:47:02.553Z,0
2022-09-18T20:57:01.498Z,0
2022-09-18T21:07:01.684Z,0
2022-09-18T21:17:01.433Z,0
2022-09-18T21:27:01.494Z,0
2022-09-18T21:37:01.716Z,0
2022-09-18T21:47:01.612Z,0
2022-09-18T21:57:01.742Z,0
2022-09-18T22:07:01.507Z,0
2022-09-18T22:17:01.607Z,0
2022-09-18T22:27:01.479Z,0
2022-09-18T22:37:01.713Z,0
2022-09-18T22:47:01.602Z,0
2022-09-18T22:57:01.713Z,0
2022-09-18T23:07:01.689Z,0
2022-09-18T23:17:01.697Z,0
2022-09-18T23:27:01.600Z,0
2022-09-18T23:37:01.826Z,0
2022-09-18T23:47:01.871Z,0
2022-09-18T23:57:01.812Z,0
